Time;durP1;ratioP1;P1;durP2;ratioP2;P2;SDS_P1;SDS_P2;PMS_P1;PMS_P2;Temp;Humidity;BMP_temperature;BMP_pressure;BME280_temperature;BME280_humidity;BME280_pressure;Samples;Min_cycle;Max_cycle;Signal;HPM_P1;HPM_P2
2022/05/05 00:01:40;;;;;;;21.48;12.35;;;;;;;9.90;69.37;95334.72;5026994;28;20045;-77
2022/05/05 00:04:05;;;;;;;19.48;10.27;;;;;;;9.89;68.75;95333.13;4996293;28;20026;-77
2022/05/05 00:06:31;;;;;;;20.83;11.63;;;;;;;9.88;69.65;95333.34;4995311;28;20025;-77
2022/05/05 00:08:56;;;;;;;31.77;12.57;;;;;;;9.81;69.84;95324.84;5029389;28;20033;-77
2022/05/05 00:14:24;;;;;;;37.42;12.10;;;;;;;9.77;69.05;95323.69;5014039;28;20044;-77
2022/05/05 00:16:59;;;;;;;24.63;9.68;;;;;;;9.74;69.03;95327.47;5014292;28;20029;-77
2022/05/05 00:19:29;;;;;;;39.05;14.50;;;;;;;9.70;69.91;95330.72;5011823;28;20026;-76
2022/05/05 00:21:55;;;;;;;33.05;14.63;;;;;;;9.67;69.84;95323.34;5087649;23;20114;-77
2022/05/05 00:24:20;;;;;;;20.45;9.82;;;;;;;9.62;69.33;95319.59;5026127;23;20051;-77
2022/05/05 00:26:46;;;;;;;22.58;10.13;;;;;;;9.59;70.48;95319.22;4998326;28;20061;-77
2022/05/05 00:29:11;;;;;;;25.23;9.40;;;;;;;9.56;69.97;95322.25;4999981;28;20034;-77
2022/05/05 00:31:37;;;;;;;16.42;8.48;;;;;;;9.53;69.82;95320.88;4999634;28;20026;-77
2022/05/05 00:34:02;;;;;;;14.93;8.90;;;;;;;9.55;69.46;95321.44;4997631;28;20034;-77
2022/05/05 00:36:28;;;;;;;16.35;9.68;;;;;;;9.53;69.49;95328.66;4997587;28;20047;-77
2022/05/05 00:38:53;;;;;;;15.18;9.00;;;;;;;9.48;69.82;95322.53;4998648;28;20026;-77
2022/05/05 00:41:19;;;;;;;12.32;8.13;;;;;;;9.48;68.93;95323.31;4998975;28;20055;-76
2022/05/05 00:43:44;;;;;;;20.08;7.88;;;;;;;9.49;69.84;95327.50;4999193;28;20111;-77
2022/05/05 00:46:13;;;;;;;10.50;8.50;;;;;;;9.54;70.49;95327.66;4981403;28;20029;-76
2022/05/05 00:48:38;;;;;;;17.23;8.98;;;;;;;9.58;71.82;95328.81;4999441;28;20052;-76
2022/05/05 00:53:36;;;;;;;30.02;7.53;;;;;;;9.53;69.44;95320.88;5055093;23;20440;-76
2022/05/05 00:56:04;;;;;;;15.30;7.82;;;;;;;9.50;68.72;95326.50;5019339;28;20529;-76
2022/05/05 00:58:30;;;;;;;12.85;7.53;;;;;;;9.47;69.23;95320.94;5001543;28;20486;-77
2022/05/05 01:00:55;;;;;;;13.15;8.10;;;;;;;9.46;69.13;95321.94;4999986;28;20045;-77
2022/05/05 01:03:21;;;;;;;26.88;11.30;;;;;;;9.40;69.42;95326.16;4997379;28;20501;-77
2022/05/05 01:05:47;;;;;;;18.33;10.25;;;;;;;9.41;68.73;95327.75;5019213;28;20037;-77
2022/05/05 01:08:12;;;;;;;17.55;9.32;;;;;;;9.35;69.05;95327.81;5018729;28;20412;-77
2022/05/05 01:10:48;;;;;;;19.65;10.07;;;;;;;9.32;69.20;95329.03;4999860;28;20026;-77
2022/05/05 01:13:14;;;;;;;31.65;12.63;;;;;;;9.31;69.39;95327.44;5020639;28;20034;-76
2022/05/05 01:15:39;;;;;;;48.03;18.67;;;;;;;9.29;69.54;95324.25;5021574;28;20034;-76
2022/05/05 01:18:05;;;;;;;55.28;25.30;;;;;;;9.26;69.05;95327.25;5022342;28;20417;-76
2022/05/05 01:20:30;;;;;;;67.75;29.92;;;;;;;9.21;69.64;95324.50;5022277;28;20067;-77
2022/05/05 01:22:56;;;;;;;58.08;24.25;;;;;;;9.19;69.08;95316.94;4987871;28;20038;-76
2022/05/05 01:28:12;;;;;;;35.33;16.20;;;;;;;9.11;69.78;95331.94;5007272;28;20072;-76
2022/05/05 01:30:38;;;;;;;;;;;;;;;9.08;70.05;95330.56;4988732;28;20393;-77
2022/05/05 01:33:11;;;;;;;17.10;11.05;;;;;;;9.00;70.00;95334.22;5021976;28;19921;-77
2022/05/05 01:35:37;;;;;;;10.40;9.00;;;;;;;9.04;70.01;95339.78;5012603;28;20029;-77
2022/05/05 01:38:07;;;;;;;14.98;9.35;;;;;;;9.06;69.49;95335.19;4986447;28;20628;-76
2022/05/05 01:42:59;;;;;;;12.00;7.40;;;;;;;9.02;70.16;95334.81;5045574;23;20141;-76
2022/05/05 01:45:24;;;;;;;12.90;7.85;;;;;;;8.96;70.05;95338.25;5031339;28;20025;-76
2022/05/05 01:47:49;;;;;;;12.55;6.47;;;;;;;8.89;70.05;95340.06;5013644;28;20032;-76
2022/05/05 01:50:15;;;;;;;20.20;7.82;;;;;;;8.89;70.25;95345.25;5029732;28;20400;-76
2022/05/05 01:52:40;;;;;;;17.70;7.88;;;;;;;8.86;69.59;95343.06;5030119;28;20041;-76
2022/05/05 01:55:06;;;;;;;16.70;8.80;;;;;;;8.88;69.63;95345.47;5011157;28;20030;-76
2022/05/05 01:57:31;;;;;;;11.07;6.80;;;;;;;8.88;69.27;95348.84;5031397;28;20064;-76
2022/05/05 01:59:58;;;;;;;11.98;7.22;;;;;;;8.93;72.12;95350.81;5031311;28;20029;-76
2022/05/05 02:02:23;;;;;;;8.90;6.57;;;;;;;8.96;71.94;95351.22;5030892;23;20133;-77
2022/05/05 02:04:50;;;;;;;7.85;6.18;;;;;;;9.00;73.23;95347.19;4996911;28;20030;-77
2022/05/05 02:07:15;;;;;;;10.00;7.22;;;;;;;9.02;72.47;95352.97;4991449;28;20117;-77
2022/05/05 02:09:41;;;;;;;22.55;11.40;;;;;;;9.00;70.81;95352.38;5026855;23;20056;-76
2022/05/05 02:12:07;;;;;;;26.10;14.52;;;;;;;8.96;69.71;95355.59;5012196;28;20034;-77
2022/05/05 02:14:32;;;;;;;21.55;12.15;;;;;;;8.93;70.13;95356.78;5007747;28;20045;-77
2022/05/05 02:16:58;;;;;;;18.25;9.70;;;;;;;8.96;70.63;95358.19;4983726;28;20418;-77
2022/05/05 02:19:23;;;;;;;27.42;10.68;;;;;;;8.93;70.84;95351.59;4956373;23;20046;-77
2022/05/05 02:21:49;;;;;;;14.93;9.93;;;;;;;8.95;71.20;95357.41;5010986;28;20149;-77
2022/05/05 02:24:14;;;;;;;29.75;10.18;;;;;;;9.00;70.80;95352.38;5011957;28;20040;-77
2022/05/05 02:26:40;;;;;;;19.17;9.85;;;;;;;9.01;70.55;95359.16;4979666;28;20037;-76
2022/05/05 02:29:05;;;;;;;27.27;9.60;;;;;;;8.98;70.99;95359.56;5009653;28;20104;-77
2022/05/05 02:31:30;;;;;;;24.02;9.98;;;;;;;9.01;69.41;95359.16;5011249;28;20034;-77
2022/05/05 02:33:56;;;;;;;19.48;11.00;;;;;;;9.00;69.28;95354.19;4976768;28;20025;-76
2022/05/05 02:39:05;;;;;;;14.05;7.72;;;;;;;9.11;70.64;95357.88;5011413;28;20730;-76
2022/05/05 02:41:31;;;;;;;13.52;7.03;;;;;;;9.12;70.90;95367.28;5011312;28;20038;-77
2022/05/05 02:43:56;;;;;;;20.48;9.02;;;;;;;9.09;70.35;95365.09;4977257;28;20398;-77
2022/05/05 02:46:22;;;;;;;11.48;7.35;;;;;;;9.13;70.28;95371.47;5010825;28;20080;-76
2022/05/05 02:48:47;;;;;;;10.80;6.55;;;;;;;9.11;70.35;95369.09;4992749;28;20038;-77
2022/05/05 02:51:13;;;;;;;18.30;7.45;;;;;;;9.05;70.27;95363.91;4993253;28;20038;-76
2022/05/05 02:56:22;;;;;;;17.50;9.35;;;;;;;8.90;72.44;95372.78;4995776;28;20045;-76
2022/05/05 02:58:47;;;;;;;15.23;8.70;;;;;;;8.87;72.02;95378.38;4976935;28;20030;-76
2022/05/05 03:01:36;;;;;;;13.07;8.45;;;;;;;8.91;71.79;95384.72;4974812;28;20049;-76
2022/05/05 03:04:01;;;;;;;14.88;9.77;;;;;;;8.88;71.01;95385.16;5010470;28;20091;-75
2022/05/05 03:06:27;;;;;;;15.48;8.90;;;;;;;8.84;72.55;95386.56;5009159;28;20038;-75
2022/05/05 03:08:52;;;;;;;15.98;9.82;;;;;;;8.89;72.87;95397.13;5010335;28;20030;-75
2022/05/05 03:11:18;;;;;;;13.32;10.13;;;;;;;8.92;73.34;95404.47;5009021;28;20042;-76
2022/05/05 03:13:43;;;;;;;23.55;10.80;;;;;;;8.95;72.18;95404.09;5011265;28;20460;-76
2022/05/05 03:16:08;;;;;;;19.02;10.20;;;;;;;9.01;73.15;95400.66;5010747;28;20045;-76
2022/05/05 03:18:34;;;;;;;22.83;12.00;;;;;;;9.06;72.42;95401.81;5010752;28;20018;-76
2022/05/05 03:20:59;;;;;;;22.38;10.85;;;;;;;9.15;72.16;95405.78;4993421;28;20112;-76
2022/05/05 03:23:25;;;;;;;19.25;10.80;;;;;;;9.18;71.20;95403.56;5010864;28;20032;-76
2022/05/05 03:25:51;;;;;;;28.38;11.35;;;;;;;9.14;71.86;95407.59;4993278;28;20454;-76
2022/05/05 03:28:16;;;;;;;27.52;12.90;;;;;;;9.21;71.84;95395.34;5010745;28;20040;-76
2022/05/05 03:30:41;;;;;;;19.55;11.80;;;;;;;9.30;72.10;95398.50;5011103;28;20524;-76
2022/05/05 03:33:07;;;;;;;24.40;12.45;;;;;;;9.40;71.15;95396.25;5011642;28;20045;-76
2022/05/05 03:35:36;;;;;;;23.02;11.30;;;;;;;9.42;71.63;95404.59;4994880;28;20417;-75
2022/05/05 03:38:01;;;;;;;30.52;11.32;;;;;;;9.51;70.77;95415.53;4978777;28;20026;-75
2022/05/05 03:40:38;;;;;;;26.10;12.55;;;;;;;9.48;71.75;95411.56;4993674;28;20029;-76
2022/05/05 03:43:04;;;;;;;33.20;12.20;;;;;;;9.57;71.01;95404.31;5010716;28;20025;-75
2022/05/05 03:45:29;;;;;;;28.63;13.40;;;;;;;9.64;70.81;95410.28;5009503;28;20100;-75
2022/05/05 03:47:54;;;;;;;32.50;13.02;;;;;;;9.72;71.27;95401.41;5010009;28;20026;-76
2022/05/05 03:50:20;;;;;;;36.22;14.00;;;;;;;9.82;71.00;95409.53;4976315;28;20042;-75
2022/05/05 03:52:45;;;;;;;46.28;15.02;;;;;;;9.88;70.45;95417.25;4976510;28;20056;-75
2022/05/05 03:55:11;;;;;;;25.40;14.73;;;;;;;9.96;70.70;95408.44;5010942;28;20410;-76
2022/05/05 03:57:36;;;;;;;46.67;19.02;;;;;;;10.02;71.30;95417.16;4976471;28;20034;-75
2022/05/05 04:00:03;;;;;;;48.30;20.80;;;;;;;10.03;71.29;95416.94;5010270;28;20072;-76
2022/05/05 04:02:29;;;;;;;36.65;17.27;;;;;;;10.14;71.17;95415.47;4992267;28;20034;-76
2022/05/05 04:04:55;;;;;;;39.78;18.45;;;;;;;10.21;70.55;95419.59;4992675;28;20037;-76
2022/05/05 04:07:20;;;;;;;34.88;17.55;;;;;;;10.25;70.59;95421.78;4991622;28;20464;-76
2022/05/05 04:09:45;;;;;;;26.77;16.77;;;;;;;10.31;70.59;95432.13;4960184;28;20033;-76
2022/05/05 04:12:11;;;;;;;31.33;16.65;;;;;;;10.30;70.71;95437.53;4976702;28;20037;-76
2022/05/05 04:14:36;;;;;;;39.63;16.05;;;;;;;10.33;71.07;95443.09;4992361;28;20034;-76
2022/05/05 04:17:02;;;;;;;25.75;16.75;;;;;;;10.30;71.27;95442.75;5009791;28;20061;-76
2022/05/05 04:19:27;;;;;;;25.92;16.00;;;;;;;10.36;70.20;95445.25;4976444;28;20416;-76
2022/05/05 04:21:53;;;;;;;25.92;16.17;;;;;;;10.40;69.91;95449.03;5009841;28;20497;-75
2022/05/05 04:24:19;;;;;;;42.60;20.60;;;;;;;10.49;69.36;95454.75;4983739;28;20022;-76
2022/05/05 04:26:45;;;;;;;43.38;19.88;;;;;;;10.49;70.18;95446.94;5009447;28;20908;-76
2022/05/05 04:29:10;;;;;;;30.40;16.50;;;;;;;10.50;70.18;95445.94;4974428;28;20034;-76
2022/05/05 04:31:35;;;;;;;28.08;13.68;;;;;;;10.54;69.82;95449.69;4975713;28;20117;-75
2022/05/05 04:34:01;;;;;;;23.83;12.65;;;;;;;10.55;69.20;95451.28;4991608;28;20414;-75
2022/05/05 04:36:27;;;;;;;25.75;13.13;;;;;;;10.62;68.94;95459.03;4975633;28;20033;-77
2022/05/05 04:38:52;;;;;;;33.63;13.25;;;;;;;10.64;68.78;95457.81;4991569;28;20034;-75
2022/05/05 04:41:18;;;;;;;23.23;12.05;;;;;;;10.75;68.23;95457.09;5009217;28;20461;-75
2022/05/05 04:43:43;;;;;;;22.23;12.40;;;;;;;10.80;68.28;95457.22;4991454;28;20038;-76
2022/05/05 04:46:09;;;;;;;17.48;12.27;;;;;;;10.84;67.27;95452.38;5008024;28;20425;-75
2022/05/05 04:48:34;;;;;;;31.42;11.43;;;;;;;10.82;67.59;95457.81;4994824;28;20977;-75
2022/05/05 04:51:00;;;;;;;22.10;11.45;;;;;;;10.95;66.49;95458.66;4994546;28;20030;-75
2022/05/05 04:53:25;;;;;;;20.40;12.07;;;;;;;10.98;67.15;95458.22;4994818;28;20830;-76
2022/05/05 04:55:51;;;;;;;19.33;11.68;;;;;;;10.97;66.53;95456.66;4977645;28;20025;-76
2022/05/05 04:58:16;;;;;;;21.80;13.15;;;;;;;10.99;66.30;95459.81;4994940;28;20042;-76
2022/05/05 05:00:44;;;;;;;21.02;12.80;;;;;;;11.03;66.36;95460.97;4994896;28;20030;-75
2022/05/05 05:03:32;;;;;;;27.88;14.55;;;;;;;11.06;66.30;95466.56;4994471;28;20030;-76
2022/05/05 05:05:55;;;;;;;24.50;13.27;;;;;;;11.06;66.56;95463.94;5012047;28;20037;-76
2022/05/05 05:08:20;;;;;;;35.53;14.63;;;;;;;11.17;66.80;95459.00;4994218;28;20503;-75
2022/05/05 05:10:46;;;;;;;24.98;14.52;;;;;;;11.28;66.69;95468.69;5010706;28;20422;-75
2022/05/05 05:13:11;;;;;;;32.75;14.02;;;;;;;11.24;66.53;95463.13;5011664;28;20029;-75
2022/05/05 05:15:36;;;;;;;28.98;13.63;;;;;;;11.25;66.55;95464.72;4977849;28;20048;-76
2022/05/05 05:18:02;;;;;;;30.42;14.38;;;;;;;11.37;66.85;95459.53;4978463;28;20030;-76
2022/05/05 05:20:27;;;;;;;25.50;15.63;;;;;;;11.50;66.05;95459.38;4978983;28;20029;-75
2022/05/05 05:22:53;;;;;;;29.52;15.48;;;;;;;11.65;65.78;95461.56;5012102;28;20060;-75
2022/05/05 05:25:18;;;;;;;21.13;14.80;;;;;;;11.77;65.01;95456.41;5011988;28;20026;-76
2022/05/05 05:27:46;;;;;;;33.35;14.10;;;;;;;11.86;64.60;95455.88;5010364;28;20042;-75
2022/05/05 05:32:46;;;;;;;28.17;14.93;;;;;;;12.04;63.74;95462.84;5529663;23;20049;-76
2022/05/05 05:35:11;;;;;;;27.08;15.50;;;;;;;12.06;63.70;95460.81;5031457;28;20101;-75
2022/05/05 05:37:37;;;;;;;28.10;15.38;;;;;;;12.09;63.86;95477.81;5031514;28;20057;-76
2022/05/05 05:40:02;;;;;;;28.08;14.63;;;;;;;12.24;63.33;95473.75;5031105;28;20413;-75
2022/05/05 05:42:28;;;;;;;30.73;16.13;;;;;;;12.24;62.19;95478.16;5031151;28;20111;-76
2022/05/05 05:44:53;;;;;;;26.55;15.45;;;;;;;12.20;62.25;95477.00;5031148;28;20037;-76
2022/05/05 05:47:18;;;;;;;21.30;13.27;;;;;;;12.30;63.04;95478.03;5013754;28;20091;-76
2022/05/05 05:52:16;;;;;;;22.88;14.70;;;;;;;12.43;62.40;95484.88;5003184;23;20414;-76
2022/05/05 05:54:41;;;;;;;25.13;15.52;;;;;;;12.53;61.88;95482.50;4991142;28;20299;-76
2022/05/05 05:57:10;;;;;;;26.77;16.30;;;;;;;12.53;61.59;95479.09;4991777;28;20038;-76
2022/05/05 05:59:36;;;;;;;28.15;16.40;;;;;;;12.48;62.47;95469.31;4957463;28;20047;-76
2022/05/05 06:04:45;;;;;;;28.33;18.83;;;;;;;12.66;61.69;95476.22;4992013;28;20153;-76
2022/05/05 06:07:11;;;;;;;34.47;17.83;;;;;;;12.56;61.52;95471.59;4991757;28;20038;-76
2022/05/05 06:09:36;;;;;;;28.15;18.55;;;;;;;12.88;60.64;95486.91;4991797;28;20034;-76
2022/05/05 06:12:03;;;;;;;27.23;16.70;;;;;;;12.97;60.45;95485.50;4991310;28;20065;-76
2022/05/05 06:14:30;;;;;;;30.55;17.67;;;;;;;13.06;60.44;95481.53;4957053;28;20018;-75
2022/05/05 06:16:55;;;;;;;40.80;17.83;;;;;;;13.23;59.76;95486.06;4975807;28;20034;-76
2022/05/05 06:19:21;;;;;;;37.05;18.95;;;;;;;13.40;59.83;95477.25;4992397;28;20038;-76
2022/05/05 06:21:46;;;;;;;28.60;19.35;;;;;;;13.54;59.83;95476.97;4974329;28;20042;-75
2022/05/05 06:24:11;;;;;;;31.33;18.15;;;;;;;14.08;58.57;95472.94;4957798;28;20069;-75
2022/05/05 06:26:37;;;;;;;30.60;18.98;;;;;;;14.58;55.80;95466.94;4973735;28;20049;-76
2022/05/05 06:29:02;;;;;;;24.40;18.23;;;;;;;15.24;54.61;95473.00;4973817;28;20101;-76
2022/05/05 06:31:28;;;;;;;25.85;17.67;;;;;;;16.24;52.00;95479.53;4974741;28;20042;-76
2022/05/05 06:33:53;;;;;;;27.70;17.20;;;;;;;17.32;48.73;95466.81;4990854;28;20037;-76
2022/05/05 06:36:19;;;;;;;29.27;17.70;;;;;;;18.05;46.03;95465.91;4973890;28;20064;-76
2022/05/05 06:38:45;;;;;;;33.75;18.48;;;;;;;18.64;44.85;95466.19;4973641;28;20069;-76
2022/05/05 06:41:11;;;;;;;29.23;17.60;;;;;;;19.57;42.88;95470.94;4957945;28;20049;-77
2022/05/05 06:43:37;;;;;;;32.13;18.13;;;;;;;20.30;41.05;95468.31;4974005;28;20043;-77
2022/05/05 06:46:03;;;;;;;41.30;19.40;;;;;;;20.59;39.50;95467.59;4958633;28;20062;-78
2022/05/05 06:48:29;;;;;;;23.67;17.25;;;;;;;20.94;40.00;95471.72;4973232;28;20164;-77
2022/05/05 06:50:54;;;;;;;24.15;17.83;;;;;;;21.15;39.02;95472.28;4991649;28;20031;-78
2022/05/05 06:53:20;;;;;;;27.00;17.95;;;;;;;21.60;38.22;95470.97;4991198;28;20030;-78
2022/05/05 06:55:46;;;;;;;30.92;19.15;;;;;;;21.74;37.24;95468.41;4990699;28;20623;-76
2022/05/05 06:58:12;;;;;;;36.35;17.83;;;;;;;21.67;36.91;95468.78;4989259;28;20573;-76
2022/05/05 07:03:21;;;;;;;29.67;18.10;;;;;;;21.32;37.87;95472.66;4990808;28;20105;-76
2022/05/05 07:05:47;;;;;;;33.03;18.50;;;;;;;21.42;38.05;95463.81;4991209;28;20034;-76
2022/05/05 07:08:12;;;;;;;26.90;17.38;;;;;;;21.58;38.53;95476.56;4989766;28;20065;-76
2022/05/05 07:10:52;;;;;;;22.80;17.90;;;;;;;21.56;37.31;95470.75;4990188;28;20042;-76
2022/05/05 07:13:22;;;;;;;29.00;18.33;;;;;;;21.56;37.42;95475.28;4990278;28;20034;-76
2022/05/05 07:15:47;;;;;;;28.55;17.00;;;;;;;21.63;37.28;95466.97;4990572;28;20522;-76
2022/05/05 07:18:12;;;;;;;38.42;18.17;;;;;;;21.70;37.72;95481.44;4990656;28;20038;-76
2022/05/05 07:20:38;;;;;;;35.50;18.85;;;;;;;21.78;36.93;95474.69;4973221;28;20034;-77
2022/05/05 07:23:05;;;;;;;33.00;19.55;;;;;;;21.58;36.96;95471.25;4955470;28;20080;-78
2022/05/05 07:25:30;;;;;;;35.35;18.60;;;;;;;21.52;37.86;95464.47;4955408;28;20177;-78
2022/05/05 07:27:55;;;;;;;32.80;18.33;;;;;;;21.39;37.66;95467.03;4990788;28;20034;-78
2022/05/05 07:30:22;;;;;;;30.92;18.70;;;;;;;21.40;38.39;95469.38;4975162;28;20026;-79
2022/05/05 07:32:47;;;;;;;32.42;19.73;;;;;;;21.50;38.47;95468.47;4992907;28;20022;-79
2022/05/05 07:35:13;;;;;;;33.88;21.25;;;;;;;21.66;37.91;95469.06;4959277;28;20641;-79
2022/05/05 07:37:39;;;;;;;38.92;22.38;;;;;;;21.68;37.58;95467.69;4959900;28;20034;-80
2022/05/05 07:40:05;;;;;;;38.58;21.58;;;;;;;21.63;37.44;95473.03;4965389;28;20034;-80
2022/05/05 07:42:31;;;;;;;43.10;24.52;;;;;;;21.44;38.63;95477.53;4963010;28;20046;-77
2022/05/05 07:44:56;;;;;;;37.70;24.85;;;;;;;21.31;38.43;95465.00;4992420;28;20030;-78
2022/05/05 07:47:22;;;;;;;38.83;24.25;;;;;;;21.20;38.20;95477.53;4989195;28;20049;-79
2022/05/05 07:49:47;;;;;;;36.47;22.95;;;;;;;21.20;38.69;95475.69;4959974;28;20552;-77
2022/05/05 07:52:13;;;;;;;36.78;23.98;;;;;;;21.13;38.41;95477.06;4978255;28;20034;-79
2022/05/05 07:54:38;;;;;;;32.42;23.48;;;;;;;21.02;39.33;95478.28;4969186;28;20085;-79
2022/05/05 07:57:08;;;;;;;41.03;23.83;;;;;;;21.11;40.20;95476.56;4964728;28;20033;-79
2022/05/05 07:59:33;;;;;;;33.05;21.30;;;;;;;20.94;38.49;95475.16;4962344;28;20036;-79
2022/05/05 08:01:59;;;;;;;38.28;22.48;;;;;;;20.81;38.94;95481.09;4978931;28;20038;-79
2022/05/05 08:04:25;;;;;;;42.35;23.50;;;;;;;20.71;39.63;95478.56;4978795;28;20026;-79
2022/05/05 08:06:51;;;;;;;35.63;22.30;;;;;;;20.73;40.19;95487.00;4977981;28;20030;-79
2022/05/05 08:09:16;;;;;;;34.10;22.80;;;;;;;20.80;39.79;95487.47;4977014;28;20398;-79
2022/05/05 08:11:42;;;;;;;32.47;21.38;;;;;;;20.92;39.12;95485.22;4977544;28;20422;-79
2022/05/05 08:14:08;;;;;;;28.00;19.30;;;;;;;20.93;38.80;95478.88;4961279;28;20023;-79
2022/05/05 08:16:34;;;;;;;35.55;21.35;;;;;;;21.02;38.74;95478.28;4993487;28;20049;-79
2022/05/05 08:18:59;;;;;;;30.90;19.05;;;;;;;20.94;38.96;95477.00;4977477;28;20058;-79
2022/05/05 08:21:25;;;;;;;36.53;18.15;;;;;;;20.91;38.87;95473.09;4992290;28;20033;-79
2022/05/05 08:29:18;;;;;;;31.75;19.48;;;;;;;20.76;38.76;95483.00;4994832;28;20053;-79
2022/05/05 08:31:44;;;;;;;35.22;17.58;;;;;;;20.72;39.24;95479.38;4994114;28;20042;-79
2022/05/05 08:34:09;;;;;;;23.48;15.95;;;;;;;20.80;38.87;95471.59;4961746;28;20035;-79
2022/05/05 08:36:34;;;;;;;31.48;16.88;;;;;;;20.88;38.69;95472.84;4945316;28;20117;-79
2022/05/05 08:39:00;;;;;;;25.77;18.10;;;;;;;20.92;38.19;95461.44;4977690;28;20363;-79
2022/05/05 08:41:25;;;;;;;31.88;18.58;;;;;;;20.99;38.98;95469.06;4977322;28;20050;-79
2022/05/05 08:43:51;;;;;;;26.85;17.23;;;;;;;21.02;37.84;95468.47;4976696;28;20494;-79
2022/05/05 08:46:17;;;;;;;28.65;19.05;;;;;;;21.02;38.95;95467.69;4944913;28;20052;-79
2022/05/05 08:48:44;;;;;;;37.63;19.33;;;;;;;21.03;39.13;95458.69;4982395;28;20104;-79
2022/05/05 08:51:09;;;;;;;36.17;21.13;;;;;;;21.13;39.20;95469.13;4991176;28;20034;-79
2022/05/05 08:53:37;;;;;;;36.55;20.10;;;;;;;21.15;38.48;95467.81;4958177;28;20030;-80
2022/05/05 08:56:03;;;;;;;30.98;18.77;;;;;;;21.24;38.70;95467.97;4960149;28;20040;-79
2022/05/05 08:58:29;;;;;;;32.95;18.90;;;;;;;21.30;38.52;95466.84;4963746;28;20072;-79
2022/05/05 09:00:55;;;;;;;34.75;19.23;;;;;;;21.36;38.36;95467.59;4979219;28;20022;-79
2022/05/05 09:03:21;;;;;;;31.63;17.83;;;;;;;21.35;37.45;95466.81;4960410;28;20039;-79
2022/05/05 09:05:51;;;;;;;24.90;17.00;;;;;;;21.25;37.47;95458.97;4995847;28;20632;-80
2022/05/05 09:08:22;;;;;;;27.48;17.27;;;;;;;21.06;38.23;95463.41;4980211;28;20039;-79
2022/05/05 09:10:50;;;;;;;33.38;18.05;;;;;;;21.02;37.61;95454.47;4977843;28;20043;-79
2022/05/05 09:13:26;;;;;;;36.22;17.55;;;;;;;20.94;37.86;95454.00;4962883;28;20023;-79
2022/05/05 09:15:54;;;;;;;29.15;16.63;;;;;;;20.75;37.35;95457.66;4976894;28;20042;-79
2022/05/05 09:18:29;;;;;;;26.63;16.38;;;;;;;20.74;38.10;95451.59;4994220;28;20057;-79
2022/05/05 09:20:58;;;;;;;25.55;15.68;;;;;;;20.63;37.63;95460.66;4978019;28;20116;-79
2022/05/05 09:23:29;;;;;;;28.77;15.50;;;;;;;20.45;38.12;95458.72;4963199;28;20351;-79
2022/05/05 09:25:55;;;;;;;23.55;15.13;;;;;;;20.31;38.11;95456.69;4993136;28;20034;-79
2022/05/05 09:28:22;;;;;;;26.92;14.68;;;;;;;20.28;37.90;95457.25;4995094;28;20041;-78
2022/05/05 09:30:49;;;;;;;25.48;15.05;;;;;;;20.39;38.03;95456.09;4960198;28;20482;-79
2022/05/05 09:33:38;;;;;;;22.55;14.45;;;;;;;20.44;38.38;95446.59;4976609;28;20053;-79
2022/05/05 09:36:05;;;;;;;23.20;14.30;;;;;;;20.56;39.07;95447.00;4996822;28;20423;-79
2022/05/05 09:39:00;;;;;;;21.98;12.90;;;;;;;20.65;36.16;95443.47;4962636;28;20030;-79
2022/05/05 09:41:34;;;;;;;32.17;13.57;;;;;;;20.64;36.65;95446.38;4978420;28;20026;-79
2022/05/05 09:44:11;;;;;;;23.95;14.30;;;;;;;20.66;37.00;95447.72;4976083;28;20041;-79
2022/05/05 09:46:37;;;;;;;10.95;9.10;;;;;;;20.70;35.69;95440.00;4978905;28;20095;-79
2022/05/05 09:49:15;;;;;;;16.00;9.35;;;;;;;20.78;35.42;95436.72;4962637;28;20116;-79
2022/05/05 09:57:39;;;;;;;10.95;7.00;;;;;;;20.86;34.13;95433.50;4978187;28;20045;-77
2022/05/05 09:57:42;;;;;;;15.20;6.88;;;;;;;20.60;33.47;95432.94;4991851;28;20617;-77
2022/05/05 10:05:42;;;;;;;18.38;8.02;;;;;;;20.72;36.22;95429.16;4976619;28;20398;-77
2022/05/05 10:08:09;;;;;;;14.48;6.10;;;;;;;20.61;35.31;95420.53;4960370;28;20038;-79
2022/05/05 10:10:35;;;;;;;9.13;4.63;;;;;;;20.67;35.11;95411.50;4966163;28;20042;-79
2022/05/05 10:13:00;;;;;;;6.93;4.25;;;;;;;20.73;32.91;95420.94;4950543;28;20081;-80
2022/05/05 10:15:25;;;;;;;10.80;5.72;;;;;;;20.82;33.80;95421.88;4949213;28;20045;-79
2022/05/05 10:17:51;;;;;;;4.95;4.00;;;;;;;20.81;32.89;95419.53;4965539;28;20088;-80
2022/05/05 10:20:17;;;;;;;4.18;2.70;;;;;;;20.57;32.83;95425.59;4965945;28;20038;-79
2022/05/05 10:22:55;;;;;;;7.38;3.00;;;;;;;20.62;32.82;95428.16;4982214;28;20040;-79
2022/05/05 10:25:26;;;;;;;5.38;3.60;;;;;;;20.71;33.33;95428.38;4967801;28;20101;-79
2022/05/05 10:27:52;;;;;;;5.20;3.03;;;;;;;20.70;33.07;95426.78;4981618;28;20053;-79
2022/05/05 10:30:34;;;;;;;6.32;3.70;;;;;;;20.78;33.90;95431.44;4965333;28;20034;-79
2022/05/05 10:32:59;;;;;;;5.35;2.85;;;;;;;20.62;32.20;95427.38;5038527;23;20046;-79
2022/05/05 10:35:26;;;;;;;4.65;3.00;;;;;;;20.61;32.35;95429.25;5019780;28;20033;-79
2022/05/05 10:37:51;;;;;;;5.05;2.90;;;;;;;20.49;32.62;95420.09;4999788;28;20034;-79
2022/05/05 10:40:17;;;;;;;5.07;2.67;;;;;;;20.51;31.76;95423.28;5013997;28;20041;-78
2022/05/05 10:42:49;;;;;;;5.28;1.90;;;;;;;20.60;31.63;95422.38;5013182;28;20469;-78
2022/05/05 10:45:19;;;;;;;4.55;2.60;;;;;;;20.55;32.97;95416.38;4993554;28;20165;-78
2022/05/05 10:48:01;;;;;;;5.75;2.63;;;;;;;20.42;33.65;95424.94;5016036;23;20153;-78
2022/05/05 10:50:54;;;;;;;4.78;2.03;;;;;;;20.25;32.75;95426.13;5013676;28;20072;-78
2022/05/05 10:53:29;;;;;;;8.38;2.60;;;;;;;20.36;33.61;95422.31;5012137;28;20121;-78
2022/05/05 10:55:55;;;;;;;2.55;2.35;;;;;;;20.50;33.22;95419.03;5012164;28;20034;-78
2022/05/05 11:00:59;;;;;;;5.65;3.10;;;;;;;20.85;33.58;95425.84;5056343;23;20594;-78
2022/05/05 11:03:24;;;;;;;6.22;2.63;;;;;;;20.82;31.49;95413.16;5033252;23;20117;-78
2022/05/05 11:05:50;;;;;;;2.90;2.60;;;;;;;20.95;32.62;95415.13;4994255;28;20513;-78
2022/05/05 11:08:19;;;;;;;5.25;2.63;;;;;;;21.06;32.83;95413.97;4990633;28;20049;-78
2022/05/05 11:22:15;;;;;;;2.40;2.05;;;;;;;20.87;33.93;95419.19;5027393;28;20048;-77
2022/05/05 11:24:44;;;;;;;3.17;2.40;;;;;;;21.09;33.65;95420.53;5027324;28;20025;-77
2022/05/05 11:27:23;;;;;;;5.47;2.30;;;;;;;21.34;34.02;95425.56;5022013;28;20060;-77
2022/05/05 11:29:50;;;;;;;2.75;2.50;;;;;;;21.13;32.20;95426.81;5002930;28;20040;-77
2022/05/05 11:32:15;;;;;;;5.15;2.30;;;;;;;21.04;32.64;95436.47;5021661;28;20573;-77
2022/05/05 11:34:41;;;;;;;2.85;2.05;;;;;;;21.08;32.64;95418.97;5004077;28;20038;-77
2022/05/05 11:37:07;;;;;;;8.60;2.20;;;;;;;21.22;32.61;95430.44;4988508;28;20490;-77
2022/05/05 11:39:34;;;;;;;4.72;2.45;;;;;;;21.46;32.21;95417.97;4993886;28;20032;-78
2022/05/05 11:42:04;;;;;;;4.15;2.53;;;;;;;21.18;32.82;95424.91;5027702;28;20060;-78
2022/05/05 11:44:29;;;;;;;1.92;1.83;;;;;;;20.96;32.96;95417.50;4993317;28;20682;-76
2022/05/05 11:46:57;;;;;;;3.05;2.75;;;;;;;20.93;33.65;95428.63;4985818;28;20037;-78
2022/05/05 11:49:35;;;;;;;3.58;1.83;;;;;;;20.92;32.24;95421.78;5004115;28;20129;-78
2022/05/05 11:52:00;;;;;;;2.13;1.92;;;;;;;20.97;32.49;95413.78;5022666;28;20037;-78
2022/05/05 11:54:32;;;;;;;4.32;2.20;;;;;;;21.32;31.93;95411.81;5024248;28;20026;-78
2022/05/05 11:56:58;;;;;;;;;;;;;;;21.54;30.82;95403.31;5072756;23;20045;-78
2022/05/05 12:02:09;;;;;;;11.85;2.00;;;;;;;21.92;30.87;95396.13;5007147;23;20053;-78
2022/05/05 12:04:36;;;;;;;11.48;1.83;;;;;;;21.92;28.88;95396.13;5010276;28;20046;-78
2022/05/05 12:07:01;;;;;;;20.55;10.50;;;;;;;21.88;29.67;95403.06;5010848;28;20022;-78
2022/05/05 12:09:27;;;;;;;2.10;1.60;;;;;;;21.52;28.55;95398.31;5014651;28;20940;-78
2022/05/05 12:11:53;;;;;;;3.17;2.67;;;;;;;21.60;28.21;95398.72;4986383;28;20044;-78
2022/05/05 12:14:22;;;;;;;4.32;2.17;;;;;;;21.64;29.05;95394.44;4978458;28;20030;-79
2022/05/05 12:16:48;;;;;;;4.15;2.50;;;;;;;21.44;29.12;95388.34;5008301;28;20034;-78
2022/05/05 12:19:14;;;;;;;2.13;1.92;;;;;;;21.27;29.84;95388.06;5014140;28;20021;-78
2022/05/05 12:21:56;;;;;;;2.40;1.70;;;;;;;20.97;30.81;95392.63;5012168;28;20046;-78